createdAt,value
2017-12-02T00:01:34.629Z,99.90
2017-12-02T00:04:04.118Z,99.90
2017-12-02T00:06:33.365Z,99.90
2017-12-02T00:09:03.394Z,99.90
2017-12-02T00:11:32.770Z,99.90
2017-12-02T00:14:02.291Z,99.80
2017-12-02T00:16:32.330Z,99.40
2017-12-02T00:19:01.906Z,99.60
2017-12-02T00:21:31.332Z,99.90
2017-12-02T00:24:00.761Z,99.90
2017-12-02T00:26:30.004Z,99.90
2017-12-02T00:28:59.280Z,99.90
2017-12-02T00:31:28.511Z,99.80
2017-12-02T00:33:57.769Z,99.70
2017-12-02T00:36:27.040Z,99.80
2017-12-02T00:38:57.058Z,99.90
2017-12-02T00:41:26.440Z,99.90
2017-12-02T00:43:56.468Z,99.80
2017-12-02T00:46:25.717Z,99.80
2017-12-02T00:48:55.084Z,99.80
2017-12-02T00:51:24.280Z,99.80
2017-12-02T00:53:54.366Z,99.70
2017-12-02T00:56:23.801Z,99.70
2017-12-02T00:58:52.997Z,99.90
2017-12-02T01:01:23.019Z,99.90
2017-12-02T01:03:52.261Z,99.90
2017-12-02T01:06:21.705Z,99.70
2017-12-02T01:08:51.013Z,99.80
2017-12-02T01:11:21.594Z,99.90
2017-12-02T01:13:50.868Z,99.90
2017-12-02T01:16:20.945Z,99.70
2017-12-02T01:18:50.193Z,99.70
2017-12-02T01:21:19.432Z,99.60
2017-12-02T01:23:48.685Z,99.50
2017-12-02T01:26:17.952Z,99.40
2017-12-02T01:28:47.984Z,99.40
2017-12-02T01:31:17.393Z,99.40
2017-12-02T01:33:47.586Z,99.50
2017-12-02T01:36:17.017Z,99.50
2017-12-02T01:38:46.258Z,99.40
2017-12-02T01:41:15.621Z,99.40
2017-12-02T01:43:45.646Z,99.40
2017-12-02T01:46:14.875Z,99.40
2017-12-02T01:48:44.142Z,99.40
2017-12-02T01:51:13.846Z,99.50
2017-12-02T01:53:43.974Z,99.50
2017-12-02T01:56:13.989Z,99.50
2017-12-02T01:58:43.273Z,99.50
2017-12-02T02:01:12.915Z,99.50
2017-12-02T02:03:43.102Z,99.70
2017-12-02T02:06:12.372Z,99.70
2017-12-02T02:08:41.726Z,99.70
2017-12-02T02:11:10.998Z,99.60
2017-12-02T02:13:41.825Z,99.80
2017-12-02T02:16:11.090Z,99.80
2017-12-02T02:18:40.349Z,99.90
2017-12-02T02:21:09.828Z,99.90
2017-12-02T02:23:39.057Z,99.90
2017-12-02T02:26:09.070Z,99.90
2017-12-02T02:28:38.481Z,99.90
2017-12-02T02:31:07.987Z,99.90
2017-12-02T02:33:37.269Z,99.90
2017-12-02T02:36:06.808Z,99.90
2017-12-02T02:38:36.842Z,99.90
2017-12-02T02:41:06.194Z,99.90
2017-12-02T02:43:36.314Z,99.90
2017-12-02T02:46:05.587Z,99.90
2017-12-02T02:48:34.994Z,99.90
2017-12-02T02:51:04.248Z,99.90
2017-12-02T02:53:34.311Z,99.90
2017-12-02T02:56:03.722Z,99.90
2017-12-02T02:58:32.950Z,99.90
2017-12-02T03:01:02.227Z,99.90
2017-12-02T03:03:31.542Z,99.90
2017-12-02T03:06:00.806Z,99.90
2017-12-02T03:08:30.068Z,99.90
2017-12-02T03:11:00.104Z,99.90
2017-12-02T03:13:29.400Z,99.90
2017-12-02T03:15:59.443Z,99.90
2017-12-02T03:18:28.693Z,99.90
2017-12-02T03:20:58.748Z,99.90
2017-12-02T03:23:28.018Z,99.90
2017-12-02T03:25:57.564Z,99.90
2017-12-02T03:28:27.014Z,99.90
2017-12-02T03:30:56.279Z,99.90
2017-12-02T03:33:25.650Z,99.90
2017-12-02T03:35:55.685Z,99.90
2017-12-02T03:38:25.031Z,99.90
2017-12-02T03:40:54.349Z,99.90
2017-12-02T03:43:23.618Z,99.90
2017-12-02T03:45:52.990Z,99.90
2017-12-02T03:48:22.210Z,99.90
2017-12-02T03:50:51.479Z,99.90
2017-12-02T03:53:20.743Z,99.90
2017-12-02T03:55:50.018Z,99.90
2017-12-02T03:58:19.278Z,99.90
2017-12-02T04:00:49.325Z,99.90
2017-12-02T04:03:18.598Z,99.90
2017-12-02T04:05:47.860Z,99.90
2017-12-02T04:08:17.134Z,99.90
2017-12-02T04:10:46.405Z,99.90
2017-12-02T04:13:16.441Z,99.90
2017-12-02T04:15:45.692Z,99.90
2017-12-02T04:18:15.154Z,99.90
2017-12-02T04:20:44.407Z,99.90
2017-12-02T04:23:14.015Z,99.90
2017-12-02T04:25:43.302Z,99.90
2017-12-02T04:28:12.559Z,99.90
2017-12-02T04:30:41.826Z,99.90
2017-12-02T04:33:11.902Z,99.90
2017-12-02T04:35:41.158Z,99.90
2017-12-02T04:38:10.429Z,99.90
2017-12-02T04:40:39.700Z,99.90
2017-12-02T04:43:08.960Z,99.90
2017-12-02T04:45:38.992Z,99.90
2017-12-02T04:48:08.274Z,99.90
2017-12-02T04:50:37.530Z,99.90
2017-12-02T04:53:06.814Z,99.90
2017-12-02T04:55:36.287Z,99.90
2017-12-02T04:58:06.330Z,99.90
2017-12-02T05:00:35.621Z,99.90
2017-12-02T05:03:04.878Z,99.90
2017-12-02T05:05:34.129Z,99.90
2017-12-02T05:08:03.397Z,99.90
2017-12-02T05:10:33.525Z,99.90
2017-12-02T05:13:03.558Z,99.90
2017-12-02T05:15:32.830Z,99.90
2017-12-02T05:18:02.079Z,99.90
2017-12-02T05:20:32.054Z,99.90
2017-12-02T05:23:01.457Z,99.90
2017-12-02T05:25:31.494Z,99.90
2017-12-02T05:28:00.746Z,99.90
2017-12-02T05:30:30.188Z,99.80
2017-12-02T05:33:00.282Z,99.70
2017-12-02T05:35:30.309Z,99.70
2017-12-02T05:37:59.713Z,99.70
2017-12-02T05:40:29.970Z,99.90
2017-12-02T05:43:00.787Z,99.60
2017-12-02T05:45:30.702Z,99.60
2017-12-02T05:48:00.776Z,99.60
2017-12-02T05:50:30.138Z,99.60
2017-12-02T05:52:59.467Z,99.60
2017-12-02T05:55:29.541Z,99.70
2017-12-02T05:57:59.572Z,99.40
2017-12-02T06:00:28.853Z,99.40
2017-12-02T06:02:58.240Z,99.50
2017-12-02T06:05:27.513Z,99.50
2017-12-02T06:07:56.771Z,99.50
2017-12-02T06:10:26.058Z,99.50
2017-12-02T06:12:55.445Z,99.40
2017-12-02T06:15:25.502Z,99.10
2017-12-02T06:17:54.770Z,99.30
2017-12-02T06:20:24.018Z,99.20
2017-12-02T06:22:53.281Z,99.30
2017-12-02T06:25:22.531Z,99.30
2017-12-02T06:27:51.783Z,99.30
2017-12-02T06:30:21.066Z,99.20
2017-12-02T06:32:50.335Z,99.40
2017-12-02T06:35:19.586Z,99.40
2017-12-02T06:37:49.603Z,99.50
2017-12-02T06:40:18.868Z,99.50
2017-12-02T06:42:48.334Z,99.60
2017-12-02T06:45:18.437Z,99.50
2017-12-02T06:47:48.486Z,99.60
2017-12-02T06:50:17.866Z,99.60
2017-12-02T06:52:47.895Z,99.40
2017-12-02T06:55:17.153Z,99.40
2017-12-02T06:57:46.621Z,99.40
2017-12-02T07:00:15.875Z,99.50
2017-12-02T07:02:45.146Z,99.40
2017-12-02T07:05:14.407Z,99.50
2017-12-02T07:07:43.682Z,99.60
2017-12-02T07:10:12.955Z,99.80
2017-12-02T07:12:42.782Z,99.70
2017-12-02T07:15:12.198Z,99.70
2017-12-02T07:17:41.448Z,99.50
2017-12-02T07:20:10.723Z,99.40
2017-12-02T07:22:40.917Z,99.40
2017-12-02T07:25:10.237Z,99.40
2017-12-02T07:27:39.525Z,99.30
2017-12-02T07:30:08.799Z,99.40
2017-12-02T07:32:38.142Z,99.60
2017-12-02T07:35:07.792Z,99.80
2017-12-02T07:37:37.141Z,99.50
2017-12-02T07:40:06.430Z,99.50
2017-12-02T07:42:35.854Z,99.40
2017-12-02T07:45:05.867Z,99.60
2017-12-02T07:47:35.141Z,99.30
2017-12-02T07:50:04.568Z,99.40
2017-12-02T07:52:33.846Z,99.50
2017-12-02T07:55:03.238Z,99.80
2017-12-02T07:57:32.585Z,99.70
2017-12-02T08:00:01.860Z,99.70
2017-12-02T08:02:31.290Z,99.90
2017-12-02T08:05:02.297Z,99.90
2017-12-02T08:07:31.594Z,99.90
2017-12-02T08:10:00.914Z,99.90
2017-12-02T08:12:30.333Z,99.90
2017-12-02T08:15:00.387Z,99.90
2017-12-02T08:17:29.645Z,99.90
2017-12-02T08:19:58.892Z,96.10
2017-12-02T08:22:28.254Z,90.60
2017-12-02T08:24:57.678Z,90.00
2017-12-02T08:27:27.847Z,67.80
2017-12-02T08:29:57.285Z,67.80
2017-12-02T08:32:27.578Z,54.10
2017-12-02T08:34:56.857Z,54.00
2017-12-02T08:37:26.258Z,52.70
2017-12-02T08:39:56.338Z,54.20
2017-12-02T08:42:25.856Z,58.20
2017-12-02T08:44:55.915Z,64.30
2017-12-02T08:47:25.270Z,64.30
2017-12-02T08:49:55.304Z,70.30
2017-12-02T08:52:24.539Z,70.30
2017-12-02T08:54:53.805Z,74.30
2017-12-02T08:57:23.810Z,77.20
2017-12-02T08:59:53.072Z,77.20
2017-12-02T09:02:23.514Z,78.40
2017-12-02T09:04:52.945Z,80.50
2017-12-02T09:07:22.209Z,80.80
2017-12-02T09:09:51.475Z,82.20
2017-12-02T09:12:20.742Z,82.00
2017-12-02T09:14:50.014Z,82.30
2017-12-02T09:17:19.266Z,79.60
2017-12-02T09:19:48.766Z,72.00
2017-12-02T09:22:18.783Z,54.50
2017-12-02T09:24:48.029Z,54.40
2017-12-02T09:27:17.310Z,51.80
2017-12-02T09:29:46.568Z,50.40
2017-12-02T09:32:16.709Z,43.00
2017-12-02T09:34:46.724Z,41.20
2017-12-02T09:37:16.025Z,40.40
2017-12-02T09:39:45.282Z,38.90
2017-12-02T09:42:14.557Z,37.90
2017-12-02T09:44:43.819Z,36.70
2017-12-02T09:47:13.118Z,35.70
2017-12-02T09:49:43.161Z,34.30
2017-12-02T09:52:12.453Z,34.30
2017-12-02T09:54:41.735Z,34.80
2017-12-02T09:57:11.757Z,35.00
2017-12-02T09:59:41.053Z,36.70
2017-12-02T10:02:11.087Z,38.40
2017-12-02T10:04:40.822Z,38.40
2017-12-02T10:07:10.073Z,39.10
2017-12-02T10:09:39.500Z,37.20
2017-12-02T10:12:09.535Z,35.60
2017-12-02T10:14:38.793Z,35.60
2017-12-02T10:17:08.085Z,35.30
2017-12-02T10:19:38.854Z,31.80
2017-12-02T10:22:08.137Z,31.80
2017-12-02T10:24:37.391Z,30.70
2017-12-02T10:27:06.645Z,30.00
2017-12-02T10:29:36.762Z,30.50
2017-12-02T10:32:06.785Z,31.30
2017-12-02T10:34:36.065Z,31.30
2017-12-02T10:37:05.326Z,32.90
2017-12-02T10:39:34.601Z,34.20
2017-12-02T10:42:03.866Z,35.70
2017-12-02T10:44:33.159Z,35.60
2017-12-02T10:47:02.431Z,36.60
2017-12-02T10:49:31.787Z,37.30
2017-12-02T10:52:01.909Z,39.00
2017-12-02T10:54:32.025Z,40.60
2017-12-02T10:57:02.082Z,41.40
2017-12-02T10:59:31.521Z,41.30
2017-12-02T11:02:00.805Z,42.10
2017-12-02T11:04:30.056Z,42.00
2017-12-02T11:07:00.121Z,39.60
2017-12-02T11:09:29.478Z,39.50
2017-12-02T11:11:59.505Z,43.50
2017-12-02T11:14:28.966Z,43.50
2017-12-02T11:16:58.221Z,46.30
2017-12-02T11:19:27.458Z,47.90
2017-12-02T11:21:56.792Z,50.40
2017-12-02T11:24:26.118Z,55.00
2017-12-02T11:26:55.466Z,59.30
2017-12-02T11:29:24.745Z,64.90
2017-12-02T11:31:54.022Z,69.80
2017-12-02T11:34:24.252Z,78.30
2017-12-02T11:36:53.454Z,78.20
2017-12-02T11:39:22.718Z,80.60
2017-12-02T11:41:51.990Z,82.00
2017-12-02T11:44:21.234Z,83.80
2017-12-02T11:46:51.257Z,85.90
2017-12-02T11:49:20.593Z,87.00
2017-12-02T11:51:49.940Z,88.10
2017-12-02T11:54:19.362Z,88.60
2017-12-02T11:56:49.467Z,90.40
2017-12-02T11:59:19.493Z,90.70
2017-12-02T12:01:48.897Z,90.60
2017-12-02T12:04:18.928Z,91.40
2017-12-02T12:06:48.317Z,91.40
2017-12-02T12:09:18.354Z,92.30
2017-12-02T12:11:47.596Z,92.00
2017-12-02T12:14:16.866Z,92.20
2017-12-02T12:16:46.110Z,92.00
2017-12-02T12:19:15.489Z,91.40
2017-12-02T12:21:44.746Z,90.90
2017-12-02T12:24:14.019Z,90.40
2017-12-02T12:26:43.390Z,89.40
2017-12-02T12:29:13.058Z,87.10
2017-12-02T12:31:43.078Z,80.90
2017-12-02T12:34:12.499Z,80.90
2017-12-02T12:36:42.521Z,82.30
2017-12-02T12:39:11.755Z,82.20
2017-12-02T12:41:41.049Z,84.00
2017-12-02T12:44:10.297Z,86.40
2017-12-02T12:46:39.586Z,89.40
2017-12-02T12:49:08.891Z,90.80
2017-12-02T12:51:39.859Z,91.90
2017-12-02T12:54:09.886Z,92.50
2017-12-02T12:56:39.167Z,92.50
2017-12-02T12:59:08.494Z,93.10
2017-12-02T13:01:37.735Z,93.70
2017-12-02T13:04:06.992Z,94.40
2017-12-02T13:06:36.299Z,94.60
2017-12-02T13:09:05.658Z,95.20
2017-12-02T13:11:35.095Z,95.70
2017-12-02T13:14:04.401Z,95.90
2017-12-02T13:16:34.057Z,95.90
2017-12-02T13:19:03.392Z,96.00
2017-12-02T13:21:32.648Z,96.00
2017-12-02T13:24:01.931Z,95.70
2017-12-02T13:26:31.307Z,95.10
2017-12-02T13:29:00.556Z,94.60
2017-12-02T13:31:30.609Z,94.20
2017-12-02T13:33:59.951Z,94.20
2017-12-02T13:36:29.455Z,94.00
2017-12-02T13:38:58.681Z,93.90
2017-12-02T13:41:28.645Z,94.10
2017-12-02T13:43:57.914Z,94.30
2017-12-02T13:46:27.189Z,94.50
2017-12-02T13:48:56.457Z,95.00
2017-12-02T13:51:25.853Z,95.30
2017-12-02T13:53:55.130Z,95.50
2017-12-02T13:56:30.342Z,95.40
2017-12-02T13:58:59.614Z,96.00
2017-12-02T14:01:28.949Z,96.30
2017-12-02T14:03:58.216Z,96.40
2017-12-02T14:06:28.274Z,96.80
2017-12-02T14:08:57.629Z,96.70
2017-12-02T14:11:26.911Z,97.10
2017-12-02T14:13:56.187Z,97.30
2017-12-02T14:16:25.626Z,97.60
2017-12-02T14:18:54.934Z,97.80
2017-12-02T14:21:24.191Z,98.10
2017-12-02T14:23:53.479Z,98.10
2017-12-02T14:26:22.726Z,98.40
2017-12-02T14:28:52.072Z,98.80
2017-12-02T14:31:21.383Z,98.60
2017-12-02T14:33:51.267Z,98.50
2017-12-02T14:36:21.305Z,98.70
2017-12-02T14:38:51.126Z,98.70
2017-12-02T14:41:20.394Z,98.80
2017-12-02T14:43:50.449Z,99.30
2017-12-02T14:46:19.704Z,99.50
2017-12-02T14:48:48.977Z,98.80
2017-12-02T14:51:18.646Z,98.70
2017-12-02T14:53:47.923Z,98.80
2017-12-02T14:56:17.197Z,98.90
2017-12-02T14:58:46.666Z,99.30
2017-12-02T15:01:15.953Z,99.30
2017-12-02T15:03:45.198Z,99.20
2017-12-02T15:06:14.454Z,99.30
2017-12-02T15:08:43.721Z,99.50
2017-12-02T15:11:13.003Z,99.60
2017-12-02T15:13:42.250Z,99.80
2017-12-02T15:16:11.630Z,99.50
2017-12-02T15:18:40.929Z,99.30
2017-12-02T15:21:10.186Z,99.40
2017-12-02T15:23:39.454Z,99.50
2017-12-02T15:26:08.727Z,99.50
2017-12-02T15:28:38.037Z,99.50
2017-12-02T15:31:07.450Z,99.60
2017-12-02T15:33:37.542Z,99.70
2017-12-02T15:36:06.783Z,99.70
2017-12-02T15:38:36.075Z,99.80
2017-12-02T15:41:05.995Z,99.90
2017-12-02T15:43:35.258Z,99.90
2017-12-02T15:46:04.548Z,99.90
2017-12-02T15:48:33.790Z,99.90
2017-12-02T15:51:03.934Z,99.90
2017-12-02T15:53:33.203Z,99.90
2017-12-02T15:56:03.234Z,99.90
2017-12-02T15:58:32.502Z,99.90
2017-12-02T16:01:01.756Z,99.90
2017-12-02T16:03:31.026Z,99.90
2017-12-02T16:06:01.039Z,99.90
2017-12-02T16:08:30.441Z,99.90
2017-12-02T16:10:59.729Z,99.90
2017-12-02T16:13:29.058Z,99.90
2017-12-02T16:15:59.283Z,99.60
2017-12-02T16:18:28.644Z,99.60
2017-12-02T16:20:57.981Z,99.30
2017-12-02T16:23:27.234Z,99.10
2017-12-02T16:25:56.589Z,99.40
2017-12-02T16:28:25.862Z,99.20
2017-12-02T16:30:55.140Z,99.20
2017-12-02T16:33:24.378Z,99.20
2017-12-02T16:35:54.720Z,98.90
2017-12-02T16:38:24.729Z,99.00
2017-12-02T16:40:54.022Z,99.00
2017-12-02T16:43:23.278Z,99.20
2017-12-02T16:45:52.862Z,99.30
2017-12-02T16:48:22.159Z,99.30
2017-12-02T16:50:51.431Z,98.80
2017-12-02T16:53:21.480Z,98.60
2017-12-02T16:55:51.487Z,98.30
2017-12-02T16:58:20.730Z,98.30
2017-12-02T17:00:50.197Z,98.20
2017-12-02T17:03:19.565Z,98.20
2017-12-02T17:05:48.806Z,98.20
2017-12-02T17:08:18.067Z,98.50
2017-12-02T17:10:47.389Z,98.80
2017-12-02T17:13:17.597Z,98.60
2017-12-02T17:15:47.014Z,98.60
2017-12-02T17:18:17.902Z,98.70
2017-12-02T17:20:47.232Z,98.60
2017-12-02T17:23:16.489Z,98.50
2017-12-02T17:25:46.482Z,98.60
2017-12-02T17:28:16.512Z,98.10
2017-12-02T17:30:45.798Z,98.10
2017-12-02T17:33:15.867Z,97.70
2017-12-02T17:35:45.158Z,97.70
2017-12-02T17:38:14.833Z,97.70
2017-12-02T17:40:44.226Z,98.10
2017-12-02T17:43:14.350Z,98.80
2017-12-02T17:45:44.371Z,98.80
2017-12-02T17:48:13.640Z,98.80
2017-12-02T17:50:42.922Z,99.00
2017-12-02T17:53:12.159Z,99.20
2017-12-02T17:55:41.513Z,99.20
2017-12-02T17:58:10.811Z,99.10
2017-12-02T18:00:40.100Z,99.30
2017-12-02T18:03:09.572Z,98.90
2017-12-02T18:05:40.314Z,98.40
2017-12-02T18:08:09.577Z,98.40
2017-12-02T18:10:39.025Z,98.80
2017-12-02T18:13:09.062Z,98.40
2017-12-02T18:15:38.305Z,98.30
2017-12-02T18:18:07.597Z,98.30
2017-12-02T18:20:36.865Z,98.10
2017-12-02T18:23:06.129Z,98.10
2017-12-02T18:25:35.488Z,97.90
2017-12-02T18:28:07.941Z,98.50
2017-12-02T18:30:37.282Z,98.10
2017-12-02T18:33:06.526Z,98.50
2017-12-02T18:35:36.626Z,98.00
2017-12-02T18:38:06.123Z,97.70
2017-12-02T18:40:35.386Z,97.40
2017-12-02T18:43:04.700Z,97.20
2017-12-02T18:45:33.982Z,97.30
2017-12-02T18:48:03.321Z,97.30
2017-12-02T18:50:32.629Z,97.10
2017-12-02T18:53:02.224Z,97.00
2017-12-02T18:55:33.015Z,97.00
2017-12-02T18:58:02.406Z,97.00
2017-12-02T19:00:31.692Z,97.50
2017-12-02T19:03:01.706Z,96.90
2017-12-02T19:05:31.026Z,96.90
2017-12-02T19:08:00.257Z,96.90
2017-12-02T19:10:29.710Z,97.20
2017-12-02T19:12:59.732Z,97.50
2017-12-02T19:15:29.031Z,97.50
2017-12-02T19:17:58.434Z,97.30
2017-12-02T19:20:28.470Z,97.50
2017-12-02T19:22:57.773Z,97.50
2017-12-02T19:25:26.981Z,97.50
2017-12-02T19:27:56.250Z,97.10
2017-12-02T19:30:26.267Z,96.90
2017-12-02T19:32:55.553Z,96.90
2017-12-02T19:35:25.785Z,97.10
2017-12-02T19:37:55.307Z,97.30
2017-12-02T19:40:25.418Z,96.90
2017-12-02T19:42:55.434Z,97.00
2017-12-02T19:45:24.698Z,97.00
2017-12-02T19:47:54.055Z,96.90
2017-12-02T19:50:23.328Z,95.80
2017-12-02T19:52:52.659Z,94.50
2017-12-02T19:55:22.808Z,95.50
2017-12-02T19:57:52.171Z,95.50
2017-12-02T20:00:22.309Z,96.90
2017-12-02T20:02:51.553Z,96.90
2017-12-02T20:05:21.026Z,97.10
2017-12-02T20:07:50.518Z,97.10
2017-12-02T20:10:19.758Z,97.00
2017-12-02T20:12:49.014Z,96.70
2017-12-02T20:15:18.507Z,96.50
2017-12-02T20:17:48.553Z,96.40
2017-12-02T20:20:17.823Z,96.40
2017-12-02T20:22:47.062Z,96.40
2017-12-02T20:25:16.406Z,96.90
2017-12-02T20:27:45.684Z,96.90
2017-12-02T20:30:14.955Z,96.70
2017-12-02T20:32:44.206Z,96.70
2017-12-02T20:35:13.745Z,97.00
2017-12-02T20:37:43.881Z,97.10
2017-12-02T20:40:13.130Z,97.10
2017-12-02T20:42:42.487Z,96.80
2017-12-02T20:45:11.763Z,97.00
2017-12-02T20:47:41.033Z,97.00
2017-12-02T20:50:10.269Z,96.70
2017-12-02T20:52:39.557Z,96.60
2017-12-02T20:55:08.828Z,96.90
2017-12-02T20:57:38.379Z,97.00
2017-12-02T21:00:07.681Z,96.90
2017-12-02T21:02:36.969Z,97.00
2017-12-02T21:05:06.379Z,96.90
2017-12-02T21:07:35.614Z,96.90
2017-12-02T21:10:04.877Z,96.50
2017-12-02T21:12:34.151Z,96.80
2017-12-02T21:15:03.422Z,96.70
2017-12-02T21:17:32.682Z,96.70
2017-12-02T21:20:02.071Z,96.90
2017-12-02T21:22:31.331Z,96.90
2017-12-02T21:25:00.613Z,97.10
2017-12-02T21:27:30.497Z,97.00
2017-12-02T21:29:59.817Z,96.70
2017-12-02T21:32:29.843Z,96.40
2017-12-02T21:34:59.076Z,96.40
2017-12-02T21:37:28.400Z,96.80
2017-12-02T21:39:57.620Z,97.00
2017-12-02T21:42:26.917Z,96.90
2017-12-02T21:44:56.934Z,97.10
2017-12-02T21:47:26.994Z,97.10
2017-12-02T21:49:56.246Z,97.10
2017-12-02T21:52:25.577Z,97.30
2017-12-02T21:54:55.580Z,97.30
2017-12-02T21:57:24.994Z,97.30
2017-12-02T21:59:55.046Z,97.20
2017-12-02T22:02:24.303Z,97.20
2017-12-02T22:04:53.549Z,96.80
2017-12-02T22:07:22.826Z,96.30
2017-12-02T22:09:52.116Z,96.40
2017-12-02T22:12:22.238Z,96.60
2017-12-02T22:14:52.344Z,96.70
2017-12-02T22:17:22.415Z,96.80
2017-12-02T22:19:51.699Z,96.80
2017-12-02T22:22:20.989Z,96.70
2017-12-02T22:24:50.252Z,96.90
2017-12-02T22:27:19.509Z,97.10
2017-12-02T22:29:48.749Z,97.10
2017-12-02T22:32:18.077Z,97.00
2017-12-02T22:34:48.128Z,97.30
2017-12-02T22:37:17.452Z,97.30
2017-12-02T22:39:46.975Z,97.20
2017-12-02T22:42:16.236Z,97.00
2017-12-02T22:44:45.599Z,97.00
2017-12-02T22:47:14.897Z,97.30
2017-12-02T22:49:44.227Z,97.20
2017-12-02T22:52:13.508Z,96.90
2017-12-02T22:54:42.793Z,97.20
2017-12-02T22:57:12.904Z,97.40
2017-12-02T22:59:42.122Z,97.40
2017-12-02T23:02:11.410Z,97.70
2017-12-02T23:04:40.705Z,98.20
2017-12-02T23:07:10.055Z,96.50
2017-12-02T23:09:39.270Z,97.00
2017-12-02T23:12:08.551Z,97.30
2017-12-02T23:14:37.840Z,96.20
2017-12-02T23:17:07.959Z,92.10
2017-12-02T23:19:37.967Z,92.00
2017-12-02T23:22:07.259Z,91.90
2017-12-02T23:24:36.502Z,93.70
2017-12-02T23:27:05.791Z,94.30
2017-12-02T23:29:35.805Z,95.10
2017-12-02T23:32:05.071Z,95.00
2017-12-02T23:34:34.353Z,95.00
2017-12-02T23:37:03.618Z,95.00
2017-12-02T23:39:32.877Z,94.80
2017-12-02T23:42:02.425Z,95.20
2017-12-02T23:44:31.669Z,95.60
2017-12-02T23:47:00.906Z,95.80
2017-12-02T23:49:30.942Z,96.20
2017-12-02T23:52:00.192Z,96.20
2017-12-02T23:54:29.467Z,95.60
2017-12-02T23:56:58.720Z,95.70
2017-12-02T23:59:27.968Z,95.80
